This demonstration page uses our WeatherBlox Daily Observations layout. Learn more.

Left ArrowRight Arrow

41.55636, -103.73856

Hourly Observations for October 19, 2015

Temp ( °F °C ) Dew Point ( °F °C ) Humidity (%) Winds ( mph kmh ) Pressure ( in mb ) Visibility ( mi km ) Precip ( " mm )
12:53 am 00:53 Clear 49 9.4 42 5.6 77 77 N 6 9 29.86 1011 10 16.0934 0 0
1:53 am 01:53 Clear 51 10.6 43 6.1 74 74 N 7 11 29.84 1011 10 16.0934 0 0
2:53 am 02:53 Clear 45 7.2 41 5 86 86 N 7 11 29.85 1011 10 16.0934 0 0
3:53 am 03:53 Clear 48 8.9 42 5.6 80 80 NW 6 9 29.84 1011 10 16.0934 0 0
4:53 am 04:53 Clear 46 7.8 42 5.6 86 86 NW 7 11 29.86 1011 10 16.0934 0 0
5:53 am 05:53 Clear 48 8.9 42 5.6 80 80 NNW 7 11 29.86 1011 10 16.0934 0 0
6:53 am 06:53 Clear 48 8.9 42 5.6 80 80 N 8 13 29.86 1011 10 16.0934 0 0
7:53 am 07:53 Sunny 47 8.3 41 5 80 80 WNW 6 9 29.89 1012 10 16.0934 0 0
8:53 am 08:53 Sunny 53 11.7 44 6.7 72 72 Calm 29.9 1013 10 16.0934 0 0
9:53 am 09:53 Sunny 63 17.2 44 6.7 50 50 W 5 7 29.87 1012 10 16.0934 0 0
10:53 am 10:53 Mostly Sunny 67 19.4 45 7.2 45 45 W 5 7 29.86 1011 10 16.0934 0 0
11:53 am 11:53 Sunny 74 23.3 44 6.7 34 34 W 8 13 29.84 1011 10 16.0934 0 0
12:53 pm 12:53 Mostly Sunny 74 23.3 43 6.1 33 33 WNW 7 11 29.83 1010 10 16.0934 0 0
1:53 pm 13:53 Sunny 78 25.6 44 6.7 30 30 WNW 9 15 29.8 1009 10 16.0934 0 0
2:53 pm 14:53 Sunny 79 26.1 42 5.6 27 27 WNW 15 24 29.8 1009 10 16.0934 0 0
3:53 pm 15:53 Sunny 74 23.3 44 6.7 34 34 W 8 13 29.8 1009 10 16.0934 0 0
4:53 pm 16:53 Sunny 72 22.2 46 7.8 40 40 WNW 5 7 29.81 1009 10 16.0934 0 0
5:53 pm 17:53 Hazy 67 19.4 48 8.9 51 51 E 6 9 29.8 1009 3 4.82802 0 0
6:53 pm 18:53 Mostly Clear 61 16.1 47 8.3 60 60 ESE 6 9 29.83 1010 10 16.0934 0 0
7:53 pm 19:53 Partly Cloudy 61 16.1 46 7.8 58 58 E 5 7 29.84 1011 10 16.0934 0 0
8:53 pm 20:53 Cloudy 59 15 47 8.3 64 64 NNW 3 6 29.84 1010 10 16.0934 0 0
9:53 pm 21:53 Cloudy 60 15.6 46 7.8 60 60 ENE 3 6 29.82 1010 10 16.0934 0 0
10:53 pm 22:53 Mostly Cloudy 56 13.3 46 7.8 70 70 WNW 8 13 29.83 1010 10 16.0934 0 0
11:53 pm 23:53 Partly Cloudy 52 11.1 45 7.2 77 77 N 5 7 29.83 1010 10 16.0934 0 0

Powered by AerisWeather